^^
Datos históricos de la estación: Murcia-Puente Tocinos
Diario Informe para Diciembre 7, 2019 Unidades:  Métrico    Ingés   Ambas
Diario Semanal Mensual Anual
  Máxima: Mínima: Promedio:
Temperatura: 16.5 °C 9.5 °C 12.1 °C
Punto de rocio: 10.5 °C 7.8 °C 9.1 °C
Humedad: 92.7% 62% 82%
Velocidad viento: 8.4km/h 0km/h 4.4km/h
Racha viento: 20.9km/h - -
Viento- - SSO
Presión: 1023.8 hPa 1020.8 hPa -
Precipitación: 0.0 mm    
 
 
Tabla de datos para Diciembre 7, 2019
Hora Temperatura Punto de rocio Presión Viento Velocidad viento Racha viento Humedad Intensidad lluvia(por hora) Nubes
00:04 12.1 °C 10.5 °C 1022.0 hPa Calm     90% 0.0 mm
00:09 12.1 °C 10.4 °C 1022.0 hPa Calm     89.5% 0.0 mm
00:14 12.1 °C 10.3 °C 1022.0 hPa Calm     89% 0.0 mm
00:19 11.9 °C 10.1 °C 1022.0 hPa Calm     88.4% 0.0 mm
00:24 11.8 °C 10 °C 1022.2 hPa Calm     88.8% 0.0 mm
00:29 11.7 °C 9.9 °C 1022.2 hPa Calm     89% 0.0 mm
00:34 11.7 °C 10 °C 1022.2 hPa Calm     89.5% 0.0 mm
00:39 11.6 °C 10 °C 1022.2 hPa Calm     90% 0.0 mm
00:44 11.6 °C 10 °C 1022.1 hPa Calm     90.1% 0.0 mm
00:49 11.5 °C 10.1 °C 1022.1 hPa Calm     91% 0.0 mm
00:54 11.5 °C 10.1 °C 1022.1 hPa Calm     91% 0.0 mm
00:59 11.5 °C 10.1 °C 1022.0 hPa Calm     91% 0.0 mm
01:04 11.5 °C 10.1 °C 1022.0 hPa Calm     91% 0.0 mm
01:09 11.5 °C 10.1 °C 1022.0 hPa Calm     91% 0.0 mm
01:14 11.5 °C 10.1 °C 1021.9 hPa Calm     91% 0.0 mm
01:19 11.5 °C 10.1 °C 1021.9 hPa Calm     91% 0.0 mm
01:24 11.5 °C 10 °C 1021.9 hPa Calm     91% 0.0 mm
01:29 11.4 °C 10 °C 1021.9 hPa Calm     91% 0.0 mm
01:34 11.3 °C 10 °C 1021.9 hPa Calm     91% 0.0 mm
01:39 11.3 °C 9.9 °C 1021.9 hPa Calm     91% 0.0 mm
01:44 11.2 °C 9.8 °C 1021.7 hPa Calm     91.1% 0.0 mm
01:49 11.2 °C 9.9 °C 1021.7 hPa Calm     92% 0.0 mm
01:54 11.1 °C 9.7 °C 1021.8 hPa Calm   6.4 km/h 91.3% 0.0 mm
01:59 11 °C 9.7 °C 1021.8 hPa Calm   8 km/h 92% 0.0 mm
02:04 10.9 °C 9.7 °C 1021.8 hPa Oeste 2.5 km/h 8 km/h 92% 0.0 mm
02:09 10.9 °C 9.7 °C 1021.8 hPa Oeste 3.2 km/h 4.8 km/h 92% 0.0 mm
02:14 10.9 °C 9.8 °C 1021.7 hPa SO 0.8 km/h 6.4 km/h 92.7% 0.0 mm
02:19 11.1 °C 9.8 °C 1021.7 hPa Calm   8 km/h 92.1% 0.0 mm
02:24 11.1 °C 9.9 °C 1021.8 hPa SO 2.2 km/h 8 km/h 92.3% 0.0 mm
02:29 11.2 °C 10 °C 1021.8 hPa SO 2.9 km/h 8.4 km/h 92.6% 0.0 mm
02:34 11.2 °C 9.9 °C 1021.8 hPa SO 3.1 km/h 9.3 km/h 92% 0.0 mm
02:39 11.2 °C 10 °C 1021.8 hPa OSO 3.2 km/h 9.7 km/h 92% 0.0 mm
02:44 11.3 °C 9.9 °C 1021.7 hPa OSO 5.6 km/h 11.1 km/h 90.9% 0.0 mm
02:49 11.3 °C 9.7 °C 1021.7 hPa Oeste 6.5 km/h 11.3 km/h 89.6% 0.0 mm
02:54 11.3 °C 9.5 °C 1021.9 hPa Oeste 6.8 km/h 11.3 km/h 88.8% 0.0 mm
02:59 11.3 °C 9.4 °C 1021.9 hPa OSO 6.9 km/h 8 km/h 88% 0.0 mm
03:04 11.2 °C 9.3 °C 1021.9 hPa SO 5.2 km/h 8 km/h 88% 0.0 mm
03:09 11.2 °C 9.3 °C 1021.9 hPa SO 4.7 km/h 8 km/h 88% 0.0 mm
03:14 11.3 °C 9.4 °C 1021.9 hPa SO 4.7 km/h 10 km/h 88% 0.0 mm
03:19 11.4 °C 9.4 °C 1021.9 hPa SO 4.7 km/h 10.3 km/h 87.4% 0.0 mm
03:24 11.4 °C 9.3 °C 1021.9 hPa SO 6.3 km/h 11.9 km/h 87% 0.0 mm
03:29 11.5 °C 9.3 °C 1021.8 hPa SO 6.9 km/h 11.3 km/h 86.4% 0.0 mm
03:34 11.6 °C 9.3 °C 1021.8 hPa OSO 7.4 km/h 11.3 km/h 86% 0.0 mm
03:39 11.6 °C 9.2 °C 1021.9 hPa OSO 7.6 km/h 11.3 km/h 85% 0.0 mm
03:44 11.6 °C 9.2 °C 1021.9 hPa OSO 6.2 km/h 9.7 km/h 85% 0.0 mm
03:49 11.6 °C 9.2 °C 1021.9 hPa OSO 5.8 km/h 13 km/h 85% 0.0 mm
03:54 11.5 °C 9.1 °C 1021.9 hPa OSO 5.2 km/h 13 km/h 85% 0.0 mm
03:59 11.6 °C 9.1 °C 1021.9 hPa Oeste 5 km/h 13 km/h 84.9% 0.0 mm
04:04 11.6 °C 9 °C 1021.9 hPa OSO 5.6 km/h 12.9 km/h 84% 0.0 mm
04:09 11.6 °C 9 °C 1021.9 hPa Sur 5.8 km/h 8 km/h 84.3% 0.0 mm
04:14 11.3 °C 8.9 °C 1021.9 hPa Sur 4.9 km/h 10 km/h 85.1% 0.0 mm
04:19 11.1 °C 8.9 °C 1021.9 hPa Sur 4.7 km/h 10.3 km/h 86.2% 0.0 mm
04:24 10.8 °C 8.8 °C 1021.9 hPa SSE 6.3 km/h 11.3 km/h 87.4% 0.0 mm
04:29 10.7 °C 8.8 °C 1021.9 hPa Sur 6.9 km/h 9.7 km/h 88.2% 0.0 mm
04:34 10.6 °C 8.9 °C 1021.9 hPa Sur 6.6 km/h 9.7 km/h 89% 0.0 mm
04:39 10.6 °C 8.9 °C 1021.9 hPa Sur 6.5 km/h 9.7 km/h 89.2% 0.0 mm
04:44 10.5 °C 9 °C 1021.7 hPa SSO 6 km/h 10 km/h 90% 0.0 mm
04:49 10.5 °C 8.9 °C 1021.7 hPa SSO 5.8 km/h 10 km/h 90% 0.0 mm
04:54 10.5 °C 9 °C 1021.7 hPa SSO 6.6 km/h 11.9 km/h 90% 0.0 mm
04:59 10.6 °C 8.9 °C 1021.6 hPa SSO 6.9 km/h 11.3 km/h 89.4% 0.0 mm
05:04 10.5 °C 8.8 °C 1021.6 hPa SSO 7.4 km/h 11.3 km/h 89% 0.0 mm
05:09 10.5 °C 8.8 °C 1021.6 hPa SSO 7.6 km/h 11.3 km/h 89% 0.0 mm
05:14 10.5 °C 8.8 °C 1021.5 hPa SSO 7.1 km/h 11.3 km/h 89% 0.0 mm
05:19 10.6 °C 8.8 °C 1021.5 hPa SSO 6.9 km/h 10 km/h 89% 0.0 mm
05:24 10.6 °C 8.9 °C 1021.5 hPa SO 6.1 km/h 9.7 km/h 89% 0.0 mm
05:29 10.5 °C 8.8 °C 1021.5 hPa SO 5.8 km/h 9.7 km/h 89% 0.0 mm
05:34 10.5 °C 8.8 °C 1021.5 hPa SO 5.2 km/h 8 km/h 89% 0.0 mm
05:39 10.5 °C 8.8 °C 1021.5 hPa SO 5 km/h 11.1 km/h 89% 0.0 mm
05:44 10.4 °C 8.7 °C 1021.5 hPa SO 5.6 km/h 11.3 km/h 89% 0.0 mm
05:49 10.4 °C 8.7 °C 1021.5 hPa SO 5.8 km/h 8.4 km/h 89% 0.0 mm
05:54 10.4 °C 8.7 °C 1021.5 hPa OSO 5.2 km/h 8.4 km/h 89% 0.0 mm
05:59 10.4 °C 8.5 °C 1021.5 hPa OSO 5 km/h 8 km/h 88.1% 0.0 mm
06:04 10.4 °C 8.5 °C 1021.5 hPa OSO 4.7 km/h 8 km/h 88% 0.0 mm
06:09 10.3 °C 8.5 °C 1021.5 hPa OSO 4.7 km/h 6.4 km/h 88% 0.0 mm
06:14 10.3 °C 8.4 °C 1021.5 hPa OSO 3.6 km/h 9.5 km/h 88% 0.0 mm
06:19 10.3 °C 8.3 °C 1021.5 hPa OSO 3.2 km/h 10 km/h 88% 0.0 mm
06:24 10.2 °C 8.4 °C 1021.5 hPa OSO 5.7 km/h 9.7 km/h 88.7% 0.0 mm
06:29 10.2 °C 8.3 °C 1021.5 hPa OSO 6.5 km/h 8 km/h 88.3% 0.0 mm
06:34 10.1 °C 8.4 °C 1021.5 hPa OSO 6 km/h 8 km/h 89% 0.0 mm
06:39 10 °C 8.3 °C 1021.5 hPa OSO 5.8 km/h 8.7 km/h 89% 0.0 mm
06:44 9.9 °C 8.2 °C 1021.5 hPa SO 5.2 km/h 9.7 km/h 89% 0.0 mm
06:49 9.9 °C 8.2 °C 1021.5 hPa SO 5 km/h 8 km/h 89% 0.0 mm
06:54 9.9 °C 8.2 °C 1021.7 hPa SO 4.7 km/h 9.3 km/h 89% 0.0 mm
06:59 9.9 °C 8.3 °C 1021.7 hPa SO 4.7 km/h 9.7 km/h 89.7% 0.0 mm
07:04 9.9 °C 8.3 °C 1021.7 hPa OSO 4.9 km/h 8 km/h 89.8% 0.0 mm
07:09 9.9 °C 8.2 °C 1021.8 hPa OSO 5 km/h 8.4 km/h 89% 0.0 mm
07:14 9.9 °C 8.2 °C 1021.8 hPa OSO 5 km/h 9.3 km/h 89% 0.0 mm
07:19 9.8 °C 8.1 °C 1021.8 hPa OSO 5 km/h 9.7 km/h 89% 0.0 mm
07:24 9.8 °C 8.1 °C 1021.9 hPa OSO 5.6 km/h 10 km/h 89% 0.0 mm
07:29 9.8 °C 8.1 °C 1021.9 hPa OSO 5.8 km/h 9.7 km/h 89% 0.0 mm
07:34 9.8 °C 8.1 °C 1021.9 hPa SO 5.8 km/h 9.7 km/h 89% 0.0 mm
07:39 9.8 °C 8.1 °C 1022.0 hPa SO 5.8 km/h 8.4 km/h 89% 0.0 mm
07:44 9.8 °C 8.2 °C 1022.0 hPa SO 5.2 km/h 9.3 km/h 89.6% 0.0 mm
07:49 9.8 °C 8.2 °C 1022.0 hPa OSO 5 km/h 9.7 km/h 90% 0.0 mm
07:54 9.8 °C 8.2 °C 1022.1 hPa OSO 5.6 km/h 9.3 km/h 89.9% 0.0 mm
07:59 9.8 °C 8.1 °C 1022.1 hPa OSO 5.8 km/h 9.7 km/h 89% 0.0 mm
08:04 9.7 °C 8 °C 1022.1 hPa OSO 5.1 km/h 9.7 km/h 89% 0.0 mm
08:09 9.7 °C 8 °C 1022.1 hPa OSO 5 km/h 9.3 km/h 89% 0.0 mm
08:14 9.7 °C 8 °C 1022.1 hPa OSO 5 km/h 9.7 km/h 89% 0.0 mm
08:19 9.7 °C 8 °C 1022.1 hPa OSO 5 km/h 8 km/h 89% 0.0 mm
08:24 9.6 °C 7.9 °C 1022.2 hPa OSO 4.7 km/h 8.4 km/h 89% 0.0 mm
08:29 9.6 °C 7.9 °C 1022.2 hPa OSO 4.7 km/h 8 km/h 89% 0.0 mm
08:34 9.6 °C 7.9 °C 1022.2 hPa OSO 4 km/h 8 km/h 89% 0.0 mm
08:39 9.6 °C 7.9 °C 1022.3 hPa OSO 3.9 km/h 8 km/h 89% 0.0 mm
08:44 9.6 °C 7.9 °C 1022.3 hPa SO 3.9 km/h 8 km/h 89% 0.0 mm
08:49 9.6 °C 7.9 °C 1022.3 hPa SO 3.9 km/h 8 km/h 89% 0.0 mm
08:54 9.6 °C 7.9 °C 1022.4 hPa SO 3.9 km/h 8 km/h 89% 0.0 mm
08:59 9.6 °C 7.9 °C 1022.4 hPa SO 3.9 km/h 5.8 km/h 89% 0.0 mm
09:04 9.5 °C 7.8 °C 1022.4 hPa SO 3.3 km/h 6.4 km/h 89% 0.0 mm
09:09 9.5 °C 7.9 °C 1022.4 hPa SO 3.2 km/h 8 km/h 89.8% 0.0 mm
09:14 9.6 °C 8 °C 1022.4 hPa SO 3.7 km/h 5.6 km/h 90% 0.0 mm
09:19 9.7 °C 8.2 °C 1022.4 hPa SO 3.9 km/h 5.8 km/h 90.3% 0.0 mm
09:24 9.8 °C 8.4 °C 1022.5 hPa SO 3.1 km/h 6.4 km/h 90.9% 0.0 mm
09:29 9.9 °C 8.3 °C 1022.5 hPa SO 2.9 km/h   90% 0.0 mm
09:34 10.1 °C 8.5 °C 1022.5 hPa SO 0.7 km/h   90% 0.0 mm
09:39 10.2 °C 8.6 °C 1022.7 hPa Calm     90% 0.0 mm
09:44 10.3 °C 8.6 °C 1022.7 hPa Calm   8.4 km/h 89.2% 0.0 mm
09:49 10.4 °C 8.6 °C 1022.7 hPa Calm   10.3 km/h 88.8% 0.0 mm
09:54 10.4 °C 8.5 °C 1022.7 hPa OSO 3.5 km/h 11.3 km/h 88% 0.0 mm
09:59 10.4 °C 8.4 °C 1022.7 hPa OSO 4.7 km/h 11.3 km/h 87.6% 0.0 mm
10:04 10.4 °C 8.4 °C 1022.7 hPa OSO 6 km/h 11.1 km/h 87% 0.0 mm
10:09 10.5 °C 8.5 °C 1022.9 hPa OSO 6.5 km/h 11.3 km/h 87% 0.0 mm
10:14 10.6 °C 8.5 °C 1022.9 hPa OSO 5.4 km/h 11.9 km/h 87% 0.0 mm
10:19 10.6 °C 8.5 °C 1022.9 hPa OSO 5 km/h 12.2 km/h 87% 0.0 mm
10:24 10.7 °C 8.5 °C 1023.1 hPa OSO 6.1 km/h 13 km/h 86.4% 0.0 mm
10:29 10.8 °C 8.5 °C 1023.1 hPa OSO 6.5 km/h 11.3 km/h 86% 0.0 mm
10:34 10.8 °C 8.6 °C 1023.1 hPa SO 6.8 km/h 11.3 km/h 86% 0.0 mm
10:39 11 °C 8.7 °C 1023.4 hPa SO 6.9 km/h 9.7 km/h 86% 0.0 mm
10:44 11.2 °C 8.7 °C 1023.4 hPa OSO 5.2 km/h 8.7 km/h 85% 0.0 mm
10:49 11.3 °C 8.7 °C 1023.4 hPa SO 4.7 km/h 10 km/h 84.2% 0.0 mm
10:54 11.4 °C 8.7 °C 1023.4 hPa SO 5.5 km/h 10 km/h 83.8% 0.0 mm
10:59 11.4 °C 8.7 °C 1023.3 hPa SO 5.8 km/h 9.7 km/h 83% 0.0 mm
11:04 11.6 °C 8.8 °C 1023.3 hPa SSO 5.8 km/h 10 km/h 82.8% 0.0 mm
11:09 11.7 °C 8.8 °C 1023.3 hPa SO 5.8 km/h 9.7 km/h 82.3% 0.0 mm
11:14 11.8 °C 8.8 °C 1023.3 hPa SO 5.8 km/h 9.7 km/h 82% 0.0 mm
11:19 11.9 °C 8.9 °C 1023.3 hPa SO 5.8 km/h 9.7 km/h 82% 0.0 mm
11:24 12.1 °C 8.9 °C 1023.3 hPa SO 5.2 km/h 13.7 km/h 80.8% 0.0 mm
11:29 12.2 °C 8.8 °C 1023.2 hPa OSO 5 km/h 14.8 km/h 80% 0.0 mm
11:34 12.2 °C 8.8 °C 1023.2 hPa OSO 7.5 km/h 14.8 km/h 80% 0.0 mm
11:39 12.2 °C 8.8 °C 1023.2 hPa OSO 8.4 km/h 14.5 km/h 80% 0.0 mm
11:44 12.2 °C 8.9 °C 1023.1 hPa SO 8.4 km/h 13 km/h 80% 0.0 mm
11:49 12.3 °C 8.9 °C 1023.1 hPa OSO 8.4 km/h 20.4 km/h 80% 0.0 mm
11:54 12.3 °C 8.8 °C 1023.1 hPa OSO 8.4 km/h 20.9 km/h 79.1% 0.0 mm
11:59 12.4 °C 9.1 °C 1023.1 hPa OSO 8.4 km/h 14.5 km/h 80% 0.0 mm
12:04 12.5 °C 9.2 °C 1023.1 hPa SSO 7.5 km/h 11.3 km/h 80% 0.0 mm
12:09 12.7 °C 9.3 °C 1023.1 hPa SSO 6.9 km/h 9.7 km/h 80% 0.0 mm
12:14 12.7 °C 9.4 °C 1022.9 hPa Sur 6.3 km/h 10 km/h 80% 0.0 mm
12:19 12.8 °C 9.3 °C 1022.9 hPa SO 5.8 km/h 11.1 km/h 79% 0.0 mm
12:24 12.9 °C 9.1 °C 1022.9 hPa OSO 6.1 km/h 14.8 km/h 77.7% 0.0 mm
12:29 13.1 °C 9.1 °C 1022.8 hPa SO 6.5 km/h 14.5 km/h 77% 0.0 mm
12:34 13.2 °C 9.1 °C 1022.8 hPa SO 6.7 km/h 11.9 km/h 76.2% 0.0 mm
12:39 13.3 °C 9.2 °C 1022.8 hPa SO 6.9 km/h 11.9 km/h 76% 0.0 mm
12:44 13.4 °C 9.2 °C 1022.6 hPa SO 6.9 km/h 13 km/h 75.5% 0.0 mm
12:49 13.5 °C 9.2 °C 1022.6 hPa SO 6.9 km/h 13 km/h 75% 0.0 mm
12:54 13.5 °C 9 °C 1022.6 hPa SSO 7.3 km/h 12.9 km/h 74.4% 0.0 mm
12:59 13.6 °C 9.2 °C 1022.5 hPa SO 7.6 km/h 11.3 km/h 74.7% 0.0 mm
13:04 13.6 °C 9.1 °C 1022.5 hPa Oeste 7.2 km/h 11.3 km/h 74.1% 0.0 mm
13:09 13.7 °C 9.2 °C 1022.5 hPa Sur 6.9 km/h 10 km/h 74.4% 0.0 mm
13:14 13.8 °C 9.2 °C 1022.3 hPa SSO 5.8 km/h 10 km/h 74% 0.0 mm
13:19 13.8 °C 9.2 °C 1022.3 hPa SO 5 km/h 9.7 km/h 74% 0.0 mm
13:24 13.8 °C 9.2 °C 1022.3 hPa SSO 5.4 km/h 9.5 km/h 74% 0.0 mm
13:29 13.9 °C 9.3 °C 1022.1 hPa SO 5.8 km/h 9.7 km/h 74% 0.0 mm
13:34 13.9 °C 9.3 °C 1022.1 hPa SO 5.3 km/h 9.5 km/h 73.9% 0.0 mm
13:39 14 °C 9.3 °C 1022.1 hPa SSO 5 km/h 9.7 km/h 73.5% 0.0 mm
13:44 14.1 °C 9.4 °C 1021.8 hPa SO 5.4 km/h 11.1 km/h 73.2% 0.0 mm
13:49 14.1 °C 9.3 °C 1021.8 hPa SO 5.8 km/h 11.3 km/h 73% 0.0 mm
13:54 14.2 °C 9.4 °C 1021.8 hPa Sur 5.3 km/h 9.5 km/h 73% 0.0 mm
13:59 14.2 °C 9.5 °C 1021.5 hPa SSE 5 km/h 10 km/h 73% 0.0 mm
14:04 14.3 °C 9.5 °C 1021.5 hPa SO 5.8 km/h 9.7 km/h 73% 0.0 mm
14:09 14.4 °C 9.5 °C 1021.5 hPa SSO 6.5 km/h 9.7 km/h 72.8% 0.0 mm
14:14 14.4 °C 9.6 °C 1021.4 hPa Sur 6.1 km/h 9.7 km/h 72.8% 0.0 mm
14:19 14.4 °C 9.6 °C 1021.4 hPa SSO 5.8 km/h 9.7 km/h 73% 0.0 mm
14:24 14.4 °C 9.6 °C 1021.4 hPa SSE 5.3 km/h 9.7 km/h 72.8% 0.0 mm
14:29 14.5 °C 9.7 °C 1021.2 hPa SE 5 km/h 10 km/h 73% 0.0 mm
14:34 14.7 °C 9.8 °C 1021.2 hPa SSE 5.4 km/h 9.7 km/h 72.7% 0.0 mm
14:39 14.7 °C 9.8 °C 1021.2 hPa SSE 5.8 km/h 9.7 km/h 72.4% 0.0 mm
14:44 14.8 °C 9.8 °C 1021.0 hPa SE 5.3 km/h 9.7 km/h 72% 0.0 mm
14:49 14.9 °C 9.7 °C 1021.0 hPa SE 5 km/h 9.3 km/h 71.3% 0.0 mm
14:54 15 °C 9.8 °C 1021.0 hPa SE 5 km/h 11.1 km/h 70.9% 0.0 mm
14:59 15.1 °C 9.7 °C 1021.0 hPa SE 5 km/h 11.3 km/h 70.4% 0.0 mm
15:04 15.2 °C 9.8 °C 1021.0 hPa SE 5.8 km/h 11.3 km/h 70% 0.0 mm
15:09 15.2 °C 9.7 °C 1021.0 hPa SSE 6.5 km/h 11.1 km/h 69.7% 0.0 mm
15:14 15.3 °C 9.7 °C 1020.9 hPa SSE 6.1 km/h 11.3 km/h 69.3% 0.0 mm
15:19 15.3 °C 9.7 °C 1020.9 hPa SE 5.8 km/h 9.7 km/h 69.1% 0.0 mm
15:24 15.4 °C 9.9 °C 1020.9 hPa SE 5.3 km/h 9.3 km/h 69.6% 0.0 mm
15:29 15.4 °C 9.8 °C 1020.8 hPa SE 5 km/h 10 km/h 69.2% 0.0 mm
15:34 15.6 °C 9.9 °C 1020.8 hPa SE 5.4 km/h 10 km/h 69% 0.0 mm
15:39 15.7 °C 9.9 °C 1020.8 hPa SE 5.8 km/h 11.1 km/h 68.7% 0.0 mm
15:44 15.7 °C 9.7 °C 1020.8 hPa SSE 6.4 km/h 11.3 km/h 67.6% 0.0 mm
15:49 15.7 °C 9.8 °C 1020.8 hPa SSE 6.9 km/h 9.7 km/h 67.9% 0.0 mm
15:54 15.8 °C 9.8 °C 1020.8 hPa SSE 6.7 km/h 9.7 km/h 67.5% 0.0 mm
15:59 15.8 °C 9.8 °C 1020.8 hPa SSE 6.5 km/h 9.7 km/h 67.6% 0.0 mm
16:04 15.8 °C 9.6 °C 1020.8 hPa SSE 6.1 km/h 9.5 km/h 66.5% 0.0 mm
16:09 15.9 °C 9.6 °C 1020.8 hPa SSE 5.8 km/h 9.7 km/h 66% 0.0 mm
16:14 16.1 °C 9.7 °C 1020.8 hPa SSE 6.1 km/h 9.7 km/h 66% 0.0 mm
16:19 16.2 °C 9.8 °C 1020.8 hPa SSE 6.5 km/h 8.4 km/h 65.7% 0.0 mm
16:24 16.3 °C 9.5 °C 1021.0 hPa SSE 5.7 km/h 9.3 km/h 64.1% 0.0 mm
16:29 16.3 °C 9.2 °C 1021.0 hPa SSE 5 km/h 9.7 km/h 62.9% 0.0 mm
16:34 16.4 °C 9.1 °C 1021.0 hPa Sur 5.8 km/h 9.7 km/h 62% 0.0 mm
16:39 16.4 °C 9.1 °C 1021.1 hPa SSE 6.5 km/h 9.7 km/h 62% 0.0 mm
16:44 16.5 °C 9.2 °C 1021.1 hPa Sur 5.6 km/h 8.4 km/h 62% 0.0 mm
16:49 16.4 °C 9.1 °C 1021.1 hPa SSE 5 km/h 9.3 km/h 62% 0.0 mm
16:54 16.4 °C 9.1 °C 1021.1 hPa SSE 5.4 km/h 9.7 km/h 62.2% 0.0 mm
16:59 16.3 °C 9.2 °C 1021.1 hPa SE 5.8 km/h 9.7 km/h 63% 0.0 mm
17:04 16.3 °C 9.4 °C 1021.1 hPa SSE 5.3 km/h 8 km/h 63.7% 0.0 mm
17:09 16.2 °C 9.4 °C 1021.2 hPa SE 5 km/h 8 km/h 64% 0.0 mm
17:14 16.1 °C 9.3 °C 1021.2 hPa SE 5 km/h 8 km/h 64% 0.0 mm
17:19 16.1 °C 9.3 °C 1021.2 hPa SE 5 km/h 8 km/h 64% 0.0 mm
17:24 16 °C 9.2 °C 1021.3 hPa SE 4.4 km/h 6.4 km/h 64.2% 0.0 mm
17:29 15.9 °C 9.1 °C 1021.3 hPa SE 3.9 km/h 5.6 km/h 64.1% 0.0 mm
17:34 15.9 °C 9.3 °C 1021.3 hPa SE 3.5 km/h 4.8 km/h 65% 0.0 mm
17:39 15.8 °C 9.2 °C 1021.4 hPa SE 3.2 km/h 5.8 km/h 65% 0.0 mm
17:44 15.7 °C 9.4 °C 1021.4 hPa SE 3.2 km/h 6.4 km/h 65.8% 0.0 mm
17:49 15.7 °C 9.5 °C 1021.4 hPa SE 3.2 km/h 6.4 km/h 66.5% 0.0 mm
17:54 15.6 °C 9.5 °C 1021.4 hPa SE 3.2 km/h 5.6 km/h 67.1% 0.0 mm
17:59 15.4 °C 9.5 °C 1021.4 hPa SE 3.2 km/h 8.4 km/h 68% 0.0 mm
18:04 15.2 °C 9.4 °C 1021.4 hPa ESE 3.2 km/h 9.5 km/h 68.4% 0.0 mm
18:09 14.8 °C 9.3 °C 1021.4 hPa ESE 3.2 km/h 9.7 km/h 69.6% 0.0 mm
18:14 14.5 °C 9.3 °C 1021.4 hPa ESE 4.6 km/h 8.4 km/h 70.9% 0.0 mm
18:19 14.3 °C 9.3 °C 1021.4 hPa ESE 5.8 km/h 8 km/h 72.1% 0.0 mm
18:24 14.2 °C 9.4 °C 1021.6 hPa ESE 4.7 km/h 8 km/h 73% 0.0 mm
18:29 14 °C 9.3 °C 1021.6 hPa ESE 3.9 km/h 5.6 km/h 73.2% 0.0 mm
18:34 13.9 °C 9.4 °C 1021.6 hPa ESE 1.7 km/h 4.8 km/h 74% 0.0 mm
18:39 13.9 °C 9.3 °C 1021.7 hPa Calm     74% 0.0 mm
18:44 13.8 °C 9.2 °C 1021.7 hPa Calm     74.1% 0.0 mm
18:49 13.6 °C 9.2 °C 1021.7 hPa Calm   7.6 km/h 75% 0.0 mm
18:54 13.4 °C 9.3 °C 1021.9 hPa ENE 1.8 km/h 8.4 km/h 75.9% 0.0 mm
18:59 13.3 °C 9.3 °C 1021.9 hPa ENE 3.2 km/h 8 km/h 76.9% 0.0 mm
19:04 13.2 °C 9.4 °C 1021.9 hPa NE 4.1 km/h 8 km/h 77.7% 0.0 mm
19:09 13.2 °C 9.4 °C 1022.1 hPa NNE 4.7 km/h 7.6 km/h 78.2% 0.0 mm
19:14 13 °C 9.5 °C 1022.1 hPa NNE 4.2 km/h 8 km/h 79% 0.0 mm
19:19 12.9 °C 9.5 °C 1022.1 hPa NNE 3.9 km/h 8 km/h 79.9% 0.0 mm
19:24 12.8 °C 9.5 °C 1022.2 hPa NNE 3.5 km/h 4.8 km/h 80.4% 0.0 mm
19:29 12.7 °C 9.5 °C 1022.2 hPa NNE 3.2 km/h 3.2 km/h 81% 0.0 mm
19:34 12.7 °C 9.5 °C 1022.2 hPa NNE 1.5 km/h 4.7 km/h 81.4% 0.0 mm
19:39 12.5 °C 9.5 °C 1022.4 hPa Calm   4.8 km/h 82% 0.0 mm
19:44 12.4 °C 9.6 °C 1022.4 hPa NNE 1.3 km/h 4.8 km/h 82.9% 0.0 mm
19:49 12.3 °C 9.5 °C 1022.4 hPa NNE 2.2 km/h 3.7 km/h 83% 0.0 mm
19:54 12.2 °C 9.6 °C 1022.6 hPa North 1 km/h 6.4 km/h 84% 0.0 mm
19:59 12.2 °C 9.7 °C 1022.6 hPa Calm   8 km/h 84.7% 0.0 mm
20:04 12.2 °C 9.8 °C 1022.6 hPa NNO 2.3 km/h 8 km/h 85% 0.0 mm
20:09 12.2 °C 9.8 °C 1022.8 hPa NNO 3.9 km/h 8 km/h 85% 0.0 mm
20:14 12.1 °C 9.7 °C 1022.8 hPa NNO 1.7 km/h   85% 0.0 mm
20:19 12.1 °C 9.8 °C 1022.8 hPa Calm   6.4 km/h 85.7% 0.0 mm
20:24 12 °C 9.7 °C 1022.8 hPa ESE 1.3 km/h 8 km/h 86% 0.0 mm
20:29 12 °C 9.7 °C 1022.8 hPa ESE 2.2 km/h 6.4 km/h 86% 0.0 mm
20:34 11.9 °C 9.6 °C 1022.8 hPa ESE 2.2 km/h 3.2 km/h 86% 0.0 mm
20:39 11.9 °C 9.6 °C 1022.9 hPa ESE 2.2 km/h   86% 0.0 mm
20:44 11.8 °C 9.6 °C 1022.9 hPa ESE 1 km/h   86% 0.0 mm
20:49 11.8 °C 9.5 °C 1022.9 hPa Calm   7.4 km/h 86% 0.0 mm
20:54 11.7 °C 9.5 °C 1023.0 hPa SSO 1.8 km/h 8 km/h 86.4% 0.0 mm
20:59 11.6 °C 9.5 °C 1023.0 hPa SSO 3.2 km/h 6.4 km/h 87% 0.0 mm
21:04 11.6 °C 9.5 °C 1023.0 hPa SSO 2.6 km/h 4.8 km/h 87% 0.0 mm
21:09 11.6 °C 9.5 °C 1023.0 hPa SO 2.2 km/h 5.8 km/h 87% 0.0 mm
21:14 11.6 °C 9.6 °C 1023.0 hPa SO 2.6 km/h 6.4 km/h 87.5% 0.0 mm
21:19 11.7 °C 9.8 °C 1023.0 hPa SO 2.9 km/h 8 km/h 88% 0.0 mm
21:24 11.7 °C 9.8 °C 1023.1 hPa SO 3.1 km/h 8 km/h 87.9% 0.0 mm
21:29 11.7 °C 9.6 °C 1023.1 hPa SO 3.2 km/h 3.2 km/h 87% 0.0 mm
21:34 11.7 °C 9.6 °C 1023.1 hPa Sur 1.4 km/h 7.4 km/h 87% 0.0 mm
21:39 11.7 °C 9.5 °C 1023.2 hPa Calm   8 km/h 86.8% 0.0 mm
21:44 11.5 °C 9.2 °C 1023.2 hPa SSE 2.6 km/h 8.4 km/h 86% 0.0 mm
21:49 11.3 °C 9.1 °C 1023.2 hPa SSE 4.7 km/h 8.4 km/h 86.1% 0.0 mm
21:54 11.2 °C 9.1 °C 1023.4 hPa SSE 5.3 km/h 8.4 km/h 87% 0.0 mm
21:59 11.1 °C 9 °C 1023.4 hPa SSO 5.8 km/h 8 km/h 87% 0.0 mm
22:04 11.1 °C 9 °C 1023.4 hPa SO 5.1 km/h 8 km/h 87% 0.0 mm
22:09 11.1 °C 9 °C 1023.4 hPa SSO 4.7 km/h 8 km/h 87% 0.0 mm
22:14 11.1 °C 9 °C 1023.4 hPa SO 4.8 km/h 9.3 km/h 87% 0.0 mm
22:19 11.1 °C 8.9 °C 1023.4 hPa SO 5 km/h 9.7 km/h 86.2% 0.0 mm
22:24 11.1 °C 8.8 °C 1023.4 hPa SSO 5 km/h 8.4 km/h 86% 0.0 mm
22:29 11.1 °C 8.8 °C 1023.4 hPa Sur 5 km/h 10 km/h 85.6% 0.0 mm
22:34 11.1 °C 8.7 °C 1023.4 hPa Sur 5.8 km/h 10.3 km/h 85% 0.0 mm
22:39 10.9 °C 8.5 °C 1023.5 hPa Sur 6.5 km/h 11.3 km/h 85% 0.0 mm
22:44 10.9 °C 8.5 °C 1023.5 hPa Sur 6.7 km/h 10 km/h 85% 0.0 mm
22:49 10.9 °C 8.5 °C 1023.5 hPa SO 6.9 km/h 9.7 km/h 85% 0.0 mm
22:54 10.9 °C 8.6 °C 1023.6 hPa SSO 6.3 km/h 11.1 km/h 85.4% 0.0 mm
22:59 10.9 °C 8.7 °C 1023.6 hPa SSO 5.8 km/h 11.3 km/h 86% 0.0 mm
23:04 10.9 °C 8.7 °C 1023.6 hPa SO 5.3 km/h 9.7 km/h 86% 0.0 mm
23:09 10.9 °C 8.7 °C 1023.6 hPa SO 5 km/h 8 km/h 86% 0.0 mm
23:14 10.9 °C 8.7 °C 1023.6 hPa SO 4.8 km/h 8 km/h 86% 0.0 mm
23:19 10.8 °C 8.6 °C 1023.6 hPa SO 4.7 km/h 8 km/h 86% 0.0 mm
23:24 10.7 °C 8.6 °C 1023.7 hPa SO 4.7 km/h 9.5 km/h 86.5% 0.0 mm
23:29 10.7 °C 8.7 °C 1023.7 hPa SO 4.7 km/h 9.7 km/h 87% 0.0 mm
23:34 10.8 °C 8.7 °C 1023.7 hPa SO 5.3 km/h 9.7 km/h 87% 0.0 mm
23:39 10.8 °C 8.7 °C 1023.8 hPa SSO 5.8 km/h 8 km/h 87% 0.0 mm
23:44 10.8 °C 8.8 °C 1023.8 hPa Sur 5.8 km/h 8.7 km/h 87% 0.0 mm
23:49 10.8 °C 8.7 °C 1023.8 hPa SSE 5.8 km/h 10 km/h 87% 0.0 mm
23:54 10.8 °C 8.7 °C 1023.8 hPa SSE 6.4 km/h 11.1 km/h 87% 0.0 mm
23:59 10.7 °C 8.6 °C 1023.7 hPa SSE 6.9 km/h 11.3 km/h 86.8% 0.0 mm
Murcia-Puente Tocinos, España
Compliments of Weather Underground - 3 mb

La estación de MeteoMurcia.com, publica sus datos en los siguientes proyectos:

Weather Underground PWS IMURCIAP2 Meteoclimatic www.awekas.at

W3Counter
Web Analytics